createdAt,value
2022-09-23T00:01:35.546Z,87.35
2022-09-23T00:04:03.570Z,87.23
2022-09-23T00:06:30.098Z,86.76
2022-09-23T00:08:56.627Z,87.19
2022-09-23T00:11:25.225Z,86.83
2022-09-23T00:13:53.576Z,87.18
2022-09-23T00:16:21.995Z,87.53
2022-09-23T00:18:48.830Z,87.22
2022-09-23T00:21:17.520Z,87.37
2022-09-23T00:23:44.275Z,87.94
2022-09-23T00:26:14.296Z,87.39
2022-09-23T00:28:41.123Z,87.74
2022-09-23T00:31:10.477Z,87.61
2022-09-23T00:33:37.327Z,87.63
2022-09-23T00:36:06.682Z,87.58
2022-09-23T00:38:34.568Z,87.81
2022-09-23T00:41:01.151Z,87.63
2022-09-23T00:43:38.831Z,87.88
2022-09-23T00:46:07.780Z,87.97
2022-09-23T00:48:35.932Z,88.27
2022-09-23T00:51:03.030Z,88.20
2022-09-23T00:53:29.671Z,87.80
2022-09-23T00:56:01.804Z,87.96
2022-09-23T00:58:34.087Z,87.68
2022-09-23T01:01:02.241Z,88.06
2022-09-23T01:03:28.950Z,88.54
2022-09-23T01:05:56.700Z,88.17
2022-09-23T01:08:24.387Z,88.49
2022-09-23T01:11:00.225Z,88.68
2022-09-23T01:13:35.669Z,88.14
2022-09-23T01:16:08.413Z,88.08
2022-09-23T01:18:42.950Z,88.60
2022-09-23T01:21:23.383Z,87.93
2022-09-23T01:24:21.442Z,88.34
2022-09-23T01:27:14.540Z,88.17
2022-09-23T01:30:03.423Z,88.48
2022-09-23T01:32:39.698Z,88.17
2022-09-23T01:35:12.898Z,88.45
2022-09-23T01:37:48.069Z,88.66
2022-09-23T01:40:20.667Z,88.17
2022-09-23T01:42:53.823Z,88.64
2022-09-23T01:45:28.786Z,88.48
2022-09-23T01:48:02.216Z,89.56
2022-09-23T01:50:31.980Z,89.37
2022-09-23T01:53:04.708Z,88.87
2022-09-23T01:55:35.263Z,89.10
2022-09-23T01:58:07.235Z,89.02
2022-09-23T02:00:35.364Z,89.27
2022-09-23T02:03:10.827Z,88.80
2022-09-23T02:05:41.170Z,89.28
2022-09-23T02:08:12.274Z,89.70
2022-09-23T02:10:44.377Z,89.93
2022-09-23T02:13:18.201Z,89.62
2022-09-23T02:15:50.415Z,89.67
2022-09-23T02:18:22.294Z,89.53
2022-09-23T02:20:50.880Z,89.31
2022-09-23T02:23:22.946Z,89.86
2022-09-23T02:25:57.970Z,89.89
2022-09-23T02:28:32.384Z,90.33
2022-09-23T02:31:08.169Z,90.19
2022-09-23T02:33:43.823Z,90.21
2022-09-23T02:36:18.903Z,90.03
2022-09-23T02:38:49.586Z,90.33
2022-09-23T02:41:25.049Z,90.41
2022-09-23T02:43:57.190Z,90.21
2022-09-23T02:46:23.917Z,90.00
2022-09-23T02:48:55.218Z,90.14
2022-09-23T02:51:22.189Z,89.87
2022-09-23T02:53:48.748Z,90.57
2022-09-23T02:56:17.886Z,89.66
2022-09-23T02:58:45.165Z,90.01
2022-09-23T03:01:24.827Z,89.79
2022-09-23T03:04:04.401Z,90.60
2022-09-23T03:06:37.351Z,90.56
2022-09-23T03:09:08.539Z,90.03
2022-09-23T03:11:39.479Z,90.24
2022-09-23T03:14:15.864Z,90.22
2022-09-23T03:16:47.564Z,89.82
2022-09-23T03:19:29.041Z,89.76
2022-09-23T03:22:02.178Z,89.78
2022-09-23T03:24:30.933Z,89.84
2022-09-23T03:27:00.602Z,89.89
2022-09-23T03:29:28.239Z,90.50
2022-09-23T03:31:56.632Z,90.55
2022-09-23T03:34:28.159Z,90.78
2022-09-23T03:36:58.519Z,90.42
2022-09-23T03:39:32.585Z,90.52
2022-09-23T03:42:03.351Z,90.96
2022-09-23T03:44:33.646Z,90.99
2022-09-23T03:47:01.680Z,90.93
2022-09-23T03:49:35.015Z,91.06
2022-09-23T03:52:02.062Z,90.87
2022-09-23T03:54:28.598Z,91.17
2022-09-23T03:56:55.652Z,91.36
2022-09-23T03:59:22.318Z,90.92
2022-09-23T04:01:48.983Z,91.40
2022-09-23T04:04:15.870Z,91.09
2022-09-23T04:06:43.968Z,90.75
2022-09-23T04:09:10.782Z,90.63
2022-09-23T04:11:37.488Z,90.87
2022-09-23T04:14:04.252Z,90.54
2022-09-23T04:16:31.121Z,91.01
2022-09-23T04:18:57.895Z,90.44
2022-09-23T04:21:24.467Z,90.56
2022-09-23T04:23:52.539Z,90.98
2022-09-23T04:26:19.152Z,90.52
2022-09-23T04:28:45.661Z,91.10
2022-09-23T04:31:12.272Z,90.67
2022-09-23T04:33:38.895Z,91.17
2022-09-23T04:36:05.892Z,91.07
2022-09-23T04:38:32.669Z,91.79
2022-09-23T04:41:00.643Z,91.19
2022-09-23T04:43:27.303Z,91.04
2022-09-23T04:46:00.446Z,91.46
2022-09-23T04:48:27.757Z,91.66
2022-09-23T04:50:54.321Z,91.56
2022-09-23T04:53:20.909Z,91.93
2022-09-23T04:55:47.497Z,91.63
2022-09-23T04:58:15.423Z,92.16
2022-09-23T05:00:41.955Z,91.30
2022-09-23T05:03:08.529Z,91.62
2022-09-23T05:05:35.057Z,91.84
2022-09-23T05:08:02.080Z,91.91
2022-09-23T05:10:28.566Z,91.42
2022-09-23T05:12:57.530Z,91.52
2022-09-23T05:15:25.406Z,91.39
2022-09-23T05:17:51.986Z,91.70
2022-09-23T05:20:18.468Z,91.60
2022-09-23T05:22:45.067Z,91.64
2022-09-23T05:25:11.569Z,91.82
2022-09-23T05:27:38.249Z,91.96
2022-09-23T05:30:05.850Z,92.44
2022-09-23T05:32:33.810Z,92.10
2022-09-23T05:35:00.359Z,92.06
2022-09-23T05:37:26.977Z,92.27
2022-09-23T05:39:53.464Z,91.71
2022-09-23T05:42:20.029Z,91.75
2022-09-23T05:44:46.598Z,91.92
2022-09-23T05:47:13.241Z,92.23
2022-09-23T05:49:58.514Z,92.01
2022-09-23T05:52:26.373Z,92.43
2022-09-23T05:54:52.950Z,92.58
2022-09-23T05:57:19.567Z,92.46
2022-09-23T05:59:46.073Z,92.64
2022-09-23T06:02:12.825Z,92.69
2022-09-23T06:04:40.767Z,92.57
2022-09-23T06:07:07.369Z,92.05
2022-09-23T06:09:36.557Z,92.09
2022-09-23T06:12:04.298Z,92.98
2022-09-23T06:14:30.878Z,92.50
2022-09-23T06:16:57.498Z,92.71
2022-09-23T06:19:24.178Z,93.23
2022-09-23T06:21:52.207Z,92.96
2022-09-23T06:24:21.520Z,93.23
2022-09-23T06:26:50.490Z,93.21
2022-09-23T06:29:17.020Z,93.82
2022-09-23T06:31:43.833Z,93.49
2022-09-23T06:34:13.126Z,93.06
2022-09-23T06:36:44.447Z,93.42
2022-09-23T06:39:14.082Z,93.17
2022-09-23T06:41:40.623Z,92.92
2022-09-23T06:44:11.695Z,93.23
2022-09-23T06:46:38.429Z,93.76
2022-09-23T06:49:05.078Z,93.21
2022-09-23T06:51:31.681Z,93.12
2022-09-23T06:53:58.201Z,93.24
2022-09-23T06:56:26.472Z,93.46
2022-09-23T06:58:53.112Z,93.09
2022-09-23T07:01:19.910Z,92.69
2022-09-23T07:03:47.611Z,92.54
2022-09-23T07:06:14.623Z,90.99
2022-09-23T07:08:43.329Z,90.94
2022-09-23T07:11:10.592Z,90.35
2022-09-23T07:13:39.273Z,89.81
2022-09-23T07:16:05.892Z,90.25
2022-09-23T07:18:36.633Z,89.91
2022-09-23T07:21:08.816Z,90.09
2022-09-23T07:23:35.701Z,90.25
2022-09-23T07:26:02.176Z,89.99
2022-09-23T07:28:28.696Z,90.15
2022-09-23T07:31:00.452Z,89.75
2022-09-23T07:33:32.081Z,89.61
2022-09-23T07:35:59.420Z,89.22
2022-09-23T07:38:25.962Z,89.28
2022-09-23T07:40:52.608Z,89.12
2022-09-23T07:43:19.166Z,89.01
2022-09-23T07:45:45.722Z,88.60
2022-09-23T07:48:13.595Z,88.45
2022-09-23T07:50:40.587Z,88.53
2022-09-23T07:53:07.103Z,87.61
2022-09-23T07:55:34.840Z,87.47
2022-09-23T07:58:01.454Z,87.16
2022-09-23T08:00:28.048Z,87.07
2022-09-23T08:02:54.602Z,87.22
2022-09-23T08:05:22.690Z,85.71
2022-09-23T08:07:49.250Z,85.38
2022-09-23T08:10:15.899Z,85.30
2022-09-23T08:12:42.414Z,85.41
2022-09-23T08:15:09.705Z,84.89
2022-09-23T08:17:36.238Z,83.00
2022-09-23T08:20:03.207Z,76.52
2022-09-23T08:22:31.059Z,77.82
2022-09-23T08:24:57.632Z,74.49
2022-09-23T08:27:24.179Z,68.43
2022-09-23T08:29:50.770Z,68.82
2022-09-23T08:32:17.266Z,69.15
2022-09-23T08:34:43.909Z,68.28
2022-09-23T08:37:10.540Z,68.04
2022-09-23T08:39:38.443Z,66.52
2022-09-23T08:42:17.560Z,66.77
2022-09-23T08:44:49.199Z,65.05
2022-09-23T08:47:21.288Z,63.82
2022-09-23T08:49:57.044Z,64.08
2022-09-23T08:52:32.601Z,63.38
2022-09-23T08:55:01.531Z,63.51
2022-09-23T08:57:38.673Z,62.04
2022-09-23T09:00:06.409Z,63.37
2022-09-23T09:02:35.129Z,63.28
2022-09-23T09:05:06.004Z,61.75
2022-09-23T09:07:37.294Z,61.77
2022-09-23T09:10:10.407Z,61.86
2022-09-23T09:12:42.002Z,60.89
2022-09-23T09:15:13.244Z,59.99
2022-09-23T09:17:48.595Z,61.19
2022-09-23T09:20:38.416Z,58.88
2022-09-23T09:23:15.393Z,58.62
2022-09-23T09:25:45.779Z,57.39
2022-09-23T09:28:23.633Z,58.50
2022-09-23T09:30:55.468Z,58.61
2022-09-23T09:33:27.561Z,58.98
2022-09-23T09:36:07.329Z,59.58
2022-09-23T09:38:34.249Z,58.97
2022-09-23T09:41:12.259Z,58.77
2022-09-23T09:43:44.023Z,57.43
2022-09-23T09:49:42.583Z,57.71
2022-09-23T09:52:21.921Z,58.71
2022-09-23T09:54:49.365Z,58.74
2022-09-23T09:57:25.959Z,56.89
2022-09-23T09:59:52.617Z,57.08
2022-09-23T10:02:27.734Z,58.21
2022-09-23T10:04:58.544Z,57.80
2022-09-23T10:07:27.256Z,56.67
2022-09-23T10:09:55.768Z,56.08
2022-09-23T10:12:26.666Z,56.57
2022-09-23T10:14:56.543Z,57.28
2022-09-23T10:17:26.862Z,54.55
2022-09-23T10:19:56.954Z,55.46
2022-09-23T10:22:25.804Z,54.62
2022-09-23T10:24:54.381Z,55.04
2022-09-23T10:27:32.994Z,53.39
2022-09-23T10:30:02.087Z,51.75
2022-09-23T10:32:31.457Z,52.83
2022-09-23T10:35:01.952Z,53.58
2022-09-23T10:37:38.014Z,52.54
2022-09-23T10:40:17.136Z,51.49
2022-09-23T10:42:57.361Z,52.17
2022-09-23T10:45:27.043Z,52.80
2022-09-23T10:48:03.123Z,49.39
2022-09-23T10:50:37.687Z,51.63
2022-09-23T10:53:12.569Z,51.01
2022-09-23T10:55:52.369Z,50.68
2022-09-23T10:59:00.804Z,48.80
2022-09-23T11:01:38.661Z,48.94
2022-09-23T11:04:35.444Z,47.32
2022-09-23T11:07:17.802Z,47.36
2022-09-23T11:10:02.167Z,47.43
2022-09-23T11:12:39.806Z,45.03
2022-09-23T11:15:26.362Z,44.10
2022-09-23T11:18:20.363Z,45.45
2022-09-23T11:20:59.301Z,44.66
2022-09-23T11:23:40.728Z,44.76
2022-09-23T11:26:19.853Z,45.07
2022-09-23T11:29:08.467Z,44.18
2022-09-23T11:31:48.519Z,43.07
2022-09-23T11:34:32.667Z,43.53
2022-09-23T11:37:03.160Z,41.33
2022-09-23T11:39:35.304Z,42.40
2022-09-23T11:42:04.768Z,41.61
2022-09-23T11:44:37.255Z,40.56
2022-09-23T11:47:09.801Z,39.89
2022-09-23T11:49:40.237Z,36.78
2022-09-23T11:52:13.145Z,37.01
2022-09-23T11:54:46.566Z,36.24
2022-09-23T11:57:26.977Z,37.24
2022-09-23T12:00:00.324Z,34.98
2022-09-23T12:02:33.404Z,36.06
2022-09-23T12:05:05.802Z,35.43
2022-09-23T12:07:44.039Z,37.30
2022-09-23T12:10:11.758Z,36.45
2022-09-23T12:12:44.566Z,36.47
2022-09-23T12:15:22.746Z,37.14
2022-09-23T12:18:17.450Z,39.09
2022-09-23T12:21:00.790Z,37.59
2022-09-23T12:23:46.102Z,36.42
2022-09-23T12:26:17.153Z,34.76
2022-09-23T12:28:45.907Z,36.22
2022-09-23T12:31:17.299Z,36.10
2022-09-23T12:33:52.198Z,36.05
2022-09-23T12:36:26.355Z,34.87
2022-09-23T12:38:57.974Z,35.75
2022-09-23T12:41:29.055Z,36.58
2022-09-23T12:44:00.336Z,35.56
2022-09-23T12:46:27.785Z,36.30
2022-09-23T12:49:04.576Z,36.84
2022-09-23T12:51:32.485Z,37.33
2022-09-23T12:54:20.262Z,38.21
2022-09-23T12:57:09.321Z,38.72
2022-09-23T12:59:56.000Z,37.65
2022-09-23T13:02:35.807Z,38.44
2022-09-23T13:05:19.963Z,36.31
2022-09-23T13:07:48.667Z,37.92
2022-09-23T13:10:22.589Z,38.56
2022-09-23T13:12:50.813Z,37.03
2022-09-23T13:15:26.437Z,37.98
2022-09-23T13:17:53.052Z,38.16
2022-09-23T13:20:37.270Z,37.62
2022-09-23T13:23:21.326Z,38.04
2022-09-23T13:25:48.988Z,37.83
2022-09-23T13:28:26.048Z,37.63
2022-09-23T13:30:53.063Z,37.40
2022-09-23T13:33:27.173Z,37.95
2022-09-23T13:35:59.640Z,38.36
2022-09-23T13:38:29.022Z,38.72
2022-09-23T13:40:58.203Z,38.25
2022-09-23T13:43:29.243Z,38.73
2022-09-23T13:45:55.884Z,37.78
2022-09-23T13:48:25.402Z,40.02
2022-09-23T13:50:55.483Z,39.53
2022-09-23T13:53:25.761Z,39.52
2022-09-23T13:56:04.667Z,40.71
2022-09-23T13:58:32.727Z,41.10
2022-09-23T14:00:59.671Z,41.17
2022-09-23T14:03:33.669Z,41.45
2022-09-23T14:06:07.413Z,40.74
2022-09-23T14:08:33.949Z,41.15
2022-09-23T14:11:00.801Z,41.33
2022-09-23T14:13:29.447Z,40.56
2022-09-23T14:15:58.549Z,42.23
2022-09-23T14:18:36.294Z,42.08
2022-09-23T14:21:04.847Z,43.03
2022-09-23T14:23:31.471Z,42.75
2022-09-23T14:25:59.006Z,43.40
2022-09-23T14:28:27.274Z,43.90
2022-09-23T14:30:55.714Z,44.25
2022-09-23T14:33:26.479Z,44.54
2022-09-23T14:35:56.489Z,44.53
2022-09-23T14:38:29.256Z,44.56
2022-09-23T14:40:58.208Z,44.95
2022-09-23T14:43:27.612Z,45.03
2022-09-23T14:45:55.949Z,45.25
2022-09-23T14:48:25.378Z,46.46
2022-09-23T14:50:57.030Z,47.05
2022-09-23T14:53:37.103Z,46.75
2022-09-23T14:56:16.180Z,47.50
2022-09-23T14:58:51.725Z,47.61
2022-09-23T15:01:26.439Z,48.42
2022-09-23T15:03:53.540Z,48.41
2022-09-23T15:06:22.603Z,48.74
2022-09-23T15:08:51.703Z,48.96
2022-09-23T15:11:19.610Z,49.62
2022-09-23T15:13:49.868Z,48.70
2022-09-23T15:16:24.079Z,49.27
2022-09-23T15:18:54.529Z,51.17
2022-09-23T15:21:21.583Z,50.49
2022-09-23T15:23:51.953Z,50.71
2022-09-23T15:26:21.053Z,50.89
2022-09-23T15:28:48.554Z,51.38
2022-09-23T15:31:16.630Z,51.72
2022-09-23T15:33:43.825Z,51.52
2022-09-23T15:36:16.392Z,50.88
2022-09-23T15:38:43.723Z,51.10
2022-09-23T15:41:12.247Z,51.40
2022-09-23T15:43:39.393Z,52.23
2022-09-23T15:46:08.115Z,51.83
2022-09-23T15:48:38.621Z,52.13
2022-09-23T15:51:07.417Z,53.05
2022-09-23T15:53:35.415Z,53.15
2022-09-23T15:56:02.158Z,52.87
2022-09-23T15:58:30.152Z,53.96
2022-09-23T16:00:57.468Z,55.09
2022-09-23T16:03:24.715Z,55.18
2022-09-23T16:05:51.769Z,54.69
2022-09-23T16:08:18.310Z,54.90
2022-09-23T16:10:44.842Z,56.30
2022-09-23T16:13:13.553Z,56.28
2022-09-23T16:15:41.805Z,57.10
2022-09-23T16:18:10.037Z,58.54
2022-09-23T16:20:39.460Z,59.37
2022-09-23T16:23:08.518Z,59.69
2022-09-23T16:25:36.683Z,59.86
2022-09-23T16:28:04.440Z,60.56
2022-09-23T16:30:32.564Z,61.17
2022-09-23T16:33:00.510Z,61.11
2022-09-23T16:35:28.639Z,61.29
2022-09-23T16:37:55.296Z,62.08
2022-09-23T16:40:23.175Z,62.35
2022-09-23T16:42:51.326Z,62.90
2022-09-23T16:45:20.822Z,63.93
2022-09-23T16:47:49.167Z,63.64
2022-09-23T16:50:18.661Z,63.50
2022-09-23T16:52:45.227Z,63.29
2022-09-23T16:55:13.768Z,63.49
2022-09-23T16:57:41.858Z,64.00
2022-09-23T17:00:13.284Z,65.25
2022-09-23T17:02:40.079Z,65.69
2022-09-23T17:05:07.245Z,66.00
2022-09-23T17:07:35.136Z,66.41
2022-09-23T17:10:01.681Z,65.99
2022-09-23T17:12:30.778Z,66.52
2022-09-23T17:14:57.468Z,66.81
2022-09-23T17:17:24.018Z,67.39
2022-09-23T17:19:50.517Z,67.50
2022-09-23T17:22:17.089Z,68.27
2022-09-23T17:24:45.128Z,68.53
2022-09-23T17:27:11.770Z,68.54
2022-09-23T17:29:38.267Z,68.64
2022-09-23T17:32:04.897Z,69.23
2022-09-23T17:34:31.393Z,70.22
2022-09-23T17:36:57.981Z,70.65
2022-09-23T17:39:24.472Z,71.12
2022-09-23T17:41:52.450Z,71.21
2022-09-23T17:44:19.013Z,71.50
2022-09-23T17:46:45.565Z,71.31
2022-09-23T17:49:12.078Z,71.43
2022-09-23T17:51:38.629Z,71.51
2022-09-23T17:54:05.213Z,71.75
2022-09-23T17:56:31.775Z,72.30
2022-09-23T17:59:01.672Z,72.60
2022-09-23T18:01:28.891Z,72.54
2022-09-23T18:03:57.079Z,72.51
2022-09-23T18:06:25.357Z,72.74
2022-09-23T18:08:52.488Z,72.85
2022-09-23T18:11:21.638Z,73.13
2022-09-23T18:13:50.582Z,73.33
2022-09-23T18:16:19.347Z,73.74
2022-09-23T18:18:50.113Z,73.47
2022-09-23T18:21:16.772Z,73.49
2022-09-23T18:23:43.278Z,73.71
2022-09-23T18:26:13.913Z,74.17
2022-09-23T18:28:40.402Z,74.07
2022-09-23T18:31:06.888Z,74.44
2022-09-23T18:33:34.725Z,74.15
2022-09-23T18:36:01.750Z,74.36
2022-09-23T18:38:28.273Z,74.45
2022-09-23T18:40:56.966Z,74.60
2022-09-23T18:43:25.859Z,74.75
2022-09-23T18:45:56.889Z,75.36
2022-09-23T18:48:23.463Z,75.94
2022-09-23T18:50:51.374Z,75.86
2022-09-23T18:53:17.886Z,75.79
2022-09-23T18:55:44.403Z,76.26
2022-09-23T18:58:10.889Z,76.61
2022-09-23T19:00:37.563Z,77.18
2022-09-23T19:03:04.370Z,77.10
2022-09-23T19:05:33.290Z,77.70
2022-09-23T19:08:01.747Z,77.75
2022-09-23T19:10:28.405Z,78.06
2022-09-23T19:12:54.900Z,78.07
2022-09-23T19:15:21.394Z,78.22
2022-09-23T19:17:47.894Z,78.13
2022-09-23T19:20:14.466Z,78.73
2022-09-23T19:22:45.625Z,78.34
2022-09-23T19:25:13.665Z,78.66
2022-09-23T19:27:40.173Z,78.34
2022-09-23T19:30:08.191Z,78.99
2022-09-23T19:32:34.693Z,78.83
2022-09-23T19:35:01.276Z,79.13
2022-09-23T19:37:27.802Z,79.86
2022-09-23T19:39:54.345Z,80.17
2022-09-23T19:42:22.188Z,80.50
2022-09-23T19:44:48.810Z,79.96
2022-09-23T19:47:15.401Z,80.26
2022-09-23T19:49:42.061Z,80.33
2022-09-23T19:52:08.570Z,80.55
2022-09-23T19:54:35.115Z,80.97
2022-09-23T19:57:01.649Z,80.85
2022-09-23T19:59:29.582Z,81.23
2022-09-23T20:01:56.205Z,81.57
2022-09-23T20:04:22.837Z,81.52
2022-09-23T20:06:49.369Z,81.67
2022-09-23T20:09:15.940Z,81.90
2022-09-23T20:11:42.544Z,81.80
2022-09-23T20:14:10.118Z,82.17
2022-09-23T20:16:38.245Z,81.95
2022-09-23T20:19:05.211Z,82.39
2022-09-23T20:21:31.980Z,82.47
2022-09-23T20:23:58.751Z,82.35
2022-09-23T20:26:25.361Z,82.51
2022-09-23T20:28:52.169Z,82.12
2022-09-23T20:31:19.913Z,82.54
2022-09-23T20:33:51.234Z,82.15
2022-09-23T20:36:18.072Z,82.27
2022-09-23T20:38:44.615Z,82.29
2022-09-23T20:41:11.349Z,82.52
2022-09-23T20:43:37.893Z,82.80
2022-09-23T20:46:05.321Z,82.92
2022-09-23T20:48:31.924Z,83.04
2022-09-23T20:51:04.091Z,83.28
2022-09-23T20:53:31.426Z,83.40
2022-09-23T20:55:59.003Z,83.59
2022-09-23T20:58:26.572Z,83.15
2022-09-23T21:00:53.383Z,83.31
2022-09-23T21:03:19.986Z,83.30
2022-09-23T21:05:46.532Z,83.37
2022-09-23T21:08:15.670Z,83.28
2022-09-23T21:10:42.189Z,83.82
2022-09-23T21:13:08.770Z,83.74
2022-09-23T21:15:35.520Z,83.72
2022-09-23T21:18:02.078Z,83.89
2022-09-23T21:20:28.578Z,83.95
2022-09-23T21:22:55.099Z,83.62
2022-09-23T21:25:27.928Z,84.09
2022-09-23T21:27:54.850Z,83.81
2022-09-23T21:30:21.333Z,84.05
2022-09-23T21:32:47.903Z,84.09
2022-09-23T21:35:14.543Z,84.29
2022-09-23T21:37:41.302Z,84.84
2022-09-23T21:40:08.872Z,84.65
2022-09-23T21:42:36.874Z,85.18
2022-09-23T21:45:03.670Z,85.24
2022-09-23T21:47:30.308Z,85.36
2022-09-23T21:49:56.811Z,85.18
2022-09-23T21:52:23.462Z,85.07
2022-09-23T21:54:49.971Z,85.06
2022-09-23T21:57:16.568Z,85.47
2022-09-23T21:59:44.408Z,85.43
2022-09-23T22:02:10.952Z,85.65
2022-09-23T22:04:37.566Z,85.53
2022-09-23T22:07:04.146Z,85.49
2022-09-23T22:09:30.658Z,85.60
2022-09-23T22:11:57.285Z,85.30
2022-09-23T22:14:24.638Z,85.68
2022-09-23T22:16:53.591Z,85.84
2022-09-23T22:19:20.128Z,86.29
2022-09-23T22:21:46.737Z,86.50
2022-09-23T22:24:13.310Z,86.90
2022-09-23T22:26:42.395Z,86.28
2022-09-23T22:29:10.771Z,86.29
2022-09-23T22:31:37.438Z,86.45
2022-09-23T22:34:05.439Z,86.60
2022-09-23T22:36:32.068Z,86.45
2022-09-23T22:38:59.392Z,86.69
2022-09-23T22:41:26.081Z,86.77
2022-09-23T22:43:52.652Z,86.75
2022-09-23T22:46:19.418Z,87.07
2022-09-23T22:48:45.967Z,87.21
2022-09-23T22:51:13.856Z,87.32
2022-09-23T22:53:40.355Z,86.94
2022-09-23T22:56:07.138Z,86.82
2022-09-23T22:58:33.644Z,87.00
2022-09-23T23:01:00.237Z,87.16
2022-09-23T23:03:26.846Z,87.29
2022-09-23T23:05:53.894Z,87.20
2022-09-23T23:08:21.796Z,87.04
2022-09-23T23:10:48.354Z,87.06
2022-09-23T23:13:14.837Z,87.20
2022-09-23T23:15:41.818Z,86.97
2022-09-23T23:18:08.417Z,87.12
2022-09-23T23:20:34.954Z,87.38
2022-09-23T23:23:01.508Z,87.36
2022-09-23T23:25:29.598Z,87.52
2022-09-23T23:27:56.432Z,87.54
2022-09-23T23:30:23.612Z,87.36
2022-09-23T23:32:50.328Z,87.46
2022-09-23T23:35:17.019Z,87.80
2022-09-23T23:37:43.531Z,87.75
2022-09-23T23:40:10.859Z,87.98
2022-09-23T23:42:39.195Z,88.15
2022-09-23T23:45:06.945Z,88.23
2022-09-23T23:47:33.559Z,88.36
2022-09-23T23:50:00.092Z,88.25
2022-09-23T23:52:26.585Z,88.42
2022-09-23T23:54:53.189Z,88.27
2022-09-23T23:57:19.718Z,88.45
2022-09-23T23:59:47.654Z,88.75
